createdAt,value
2018-09-21T00:01:54.090Z,15.45
2018-09-21T00:04:23.749Z,15.44
2018-09-21T00:06:53.110Z,15.48
2018-09-21T00:09:21.675Z,15.29
2018-09-21T00:11:50.275Z,15.42
2018-09-21T00:14:19.150Z,15.39
2018-09-21T00:16:48.839Z,15.45
2018-09-21T00:19:17.493Z,15.25
2018-09-21T00:21:46.901Z,15.06
2018-09-21T00:24:15.642Z,15.04
2018-09-21T00:26:45.033Z,14.91
2018-09-21T00:29:15.078Z,14.82
2018-09-21T00:31:46.120Z,14.66
2018-09-21T00:34:14.735Z,14.78
2018-09-21T00:36:44.018Z,14.91
2018-09-21T00:39:13.501Z,15.13
2018-09-21T00:41:43.457Z,15.05
2018-09-21T00:44:12.745Z,15.05
2018-09-21T00:46:42.346Z,14.69
2018-09-21T00:49:11.065Z,14.81
2018-09-21T00:51:41.649Z,14.56
2018-09-21T00:54:11.155Z,14.52
2018-09-21T00:56:40.818Z,14.40
2018-09-21T00:59:09.592Z,14.70
2018-09-21T01:01:38.160Z,14.72
2018-09-21T01:04:07.390Z,14.78
2018-09-21T01:06:37.100Z,14.94
2018-09-21T01:09:08.895Z,15.04
2018-09-21T01:11:38.509Z,15.02
2018-09-21T01:14:09.566Z,14.88
2018-09-21T01:16:39.342Z,14.82
2018-09-21T01:19:08.702Z,14.85
2018-09-21T01:21:37.783Z,14.90
2018-09-21T01:24:06.096Z,15.05
2018-09-21T01:26:34.642Z,14.75
2018-09-21T01:29:03.281Z,15.00
2018-09-21T01:31:31.886Z,14.90
2018-09-21T01:34:00.455Z,15.04
2018-09-21T01:36:28.984Z,15.06
2018-09-21T01:39:00.462Z,14.98
2018-09-21T01:41:28.993Z,15.05
2018-09-21T01:43:57.564Z,15.12
2018-09-21T01:46:26.145Z,15.08
2018-09-21T01:48:54.728Z,15.09
2018-09-21T01:51:23.278Z,14.88
2018-09-21T01:53:51.847Z,14.97
2018-09-21T01:56:20.436Z,14.90
2018-09-21T01:58:49.033Z,14.89
2018-09-21T02:01:17.609Z,14.88
2018-09-21T02:03:46.341Z,14.82
2018-09-21T02:06:15.101Z,14.91
2018-09-21T02:08:43.685Z,14.99
2018-09-21T02:11:12.283Z,14.95
2018-09-21T02:13:40.884Z,15.03
2018-09-21T02:16:09.413Z,14.91
2018-09-21T02:18:37.982Z,14.87
2018-09-21T02:21:06.546Z,14.88
2018-09-21T02:23:35.098Z,14.89
2018-09-21T02:26:03.630Z,14.75
2018-09-21T02:28:32.177Z,14.90
2018-09-21T02:31:00.694Z,14.81
2018-09-21T02:33:29.286Z,14.67
2018-09-21T02:35:57.830Z,14.61
2018-09-21T02:38:26.462Z,14.59
2018-09-21T02:40:55.009Z,14.71
2018-09-21T02:43:23.616Z,14.66
2018-09-21T02:45:52.161Z,14.72
2018-09-21T02:48:20.704Z,14.85
2018-09-21T02:50:49.287Z,14.58
2018-09-21T02:53:17.842Z,14.73
2018-09-21T02:55:46.436Z,14.72
2018-09-21T02:58:14.997Z,14.80
2018-09-21T03:00:43.696Z,14.79
2018-09-21T03:03:12.173Z,14.78
2018-09-21T03:05:40.754Z,14.82
2018-09-21T03:08:09.294Z,14.89
2018-09-21T03:10:37.848Z,14.84
2018-09-21T03:13:07.028Z,14.94
2018-09-21T03:15:35.568Z,14.82
2018-09-21T03:18:04.106Z,14.85
2018-09-21T03:20:32.673Z,14.91
2018-09-21T03:23:01.246Z,15.01
2018-09-21T03:25:29.781Z,14.91
2018-09-21T03:27:58.300Z,14.90
2018-09-21T03:30:26.851Z,14.99
2018-09-21T03:32:55.377Z,15.04
2018-09-21T03:35:24.025Z,14.96
2018-09-21T03:37:52.482Z,14.91
2018-09-21T03:40:21.299Z,14.93
2018-09-21T03:42:50.195Z,14.96
2018-09-21T03:45:18.758Z,14.87
2018-09-21T03:47:47.309Z,14.93
2018-09-21T03:50:15.870Z,14.86
2018-09-21T03:52:44.415Z,15.10
2018-09-21T03:55:12.984Z,14.94
2018-09-21T03:57:41.493Z,14.85
2018-09-21T04:00:10.412Z,14.49
2018-09-21T04:02:38.941Z,14.52
2018-09-21T04:05:17.324Z,14.63
2018-09-21T04:07:46.539Z,14.84
2018-09-21T04:10:16.094Z,14.83
2018-09-21T04:12:44.706Z,14.74
2018-09-21T04:15:13.661Z,14.82
2018-09-21T04:17:42.204Z,14.76
2018-09-21T04:20:11.106Z,14.74
2018-09-21T04:22:39.685Z,14.72
2018-09-21T04:25:09.790Z,14.57
2018-09-21T04:27:38.454Z,14.51
2018-09-21T04:30:07.149Z,14.35
2018-09-21T04:32:35.860Z,14.55
2018-09-21T04:35:04.506Z,14.48
2018-09-21T04:37:33.055Z,14.53
2018-09-21T04:40:01.628Z,14.56
2018-09-21T04:42:30.715Z,14.55
2018-09-21T04:44:59.472Z,14.59
2018-09-21T04:47:28.037Z,14.72
2018-09-21T04:49:56.572Z,14.54
2018-09-21T04:52:25.940Z,14.56
2018-09-21T04:54:54.524Z,14.36
2018-09-21T04:57:23.105Z,14.60
2018-09-21T04:59:51.658Z,14.42
2018-09-21T05:02:20.230Z,14.48
2018-09-21T05:04:48.768Z,14.65
2018-09-21T05:07:17.629Z,14.63
2018-09-21T05:09:46.230Z,14.65
2018-09-21T05:12:14.818Z,14.70
2018-09-21T05:14:43.779Z,14.52
2018-09-21T05:17:12.586Z,14.18
2018-09-21T05:19:41.501Z,14.54
2018-09-21T05:22:10.063Z,14.48
2018-09-21T05:24:38.605Z,14.57
2018-09-21T05:27:07.284Z,14.59
2018-09-21T05:29:36.422Z,14.62
2018-09-21T05:32:05.908Z,14.51
2018-09-21T05:34:34.499Z,14.64
2018-09-21T05:37:03.021Z,14.64
2018-09-21T05:39:31.617Z,14.66
2018-09-21T05:42:00.194Z,14.16
2018-09-21T05:44:28.735Z,14.22
2018-09-21T05:46:57.379Z,14.56
2018-09-21T05:49:25.857Z,14.64
2018-09-21T05:51:58.143Z,14.63
2018-09-21T05:54:26.675Z,14.30
2018-09-21T05:56:55.289Z,14.44
2018-09-21T05:59:23.841Z,14.56
2018-09-21T06:01:52.436Z,14.71
2018-09-21T06:04:20.962Z,14.88
2018-09-21T06:06:49.968Z,15.01
2018-09-21T06:09:18.525Z,15.26
2018-09-21T06:11:47.094Z,15.48
2018-09-21T06:14:15.626Z,15.52
2018-09-21T06:16:50.621Z,15.62
2018-09-21T06:19:19.317Z,15.75
2018-09-21T06:21:47.892Z,15.88
2018-09-21T06:24:17.257Z,15.91
2018-09-21T06:26:45.813Z,16.00
2018-09-21T06:29:14.355Z,16.09
2018-09-21T06:31:42.908Z,16.20
2018-09-21T06:34:11.454Z,16.18
2018-09-21T06:36:40.031Z,16.39
2018-09-21T06:39:10.705Z,16.53
2018-09-21T06:41:39.638Z,16.77
2018-09-21T06:44:08.805Z,16.90
2018-09-21T06:46:37.388Z,16.97
2018-09-21T06:49:06.320Z,17.28
2018-09-21T06:51:34.857Z,17.40
2018-09-21T06:54:03.486Z,17.63
2018-09-21T06:56:31.996Z,17.83
2018-09-21T06:59:00.569Z,17.96
2018-09-21T07:01:29.164Z,18.08
2018-09-21T07:03:57.701Z,18.18
2018-09-21T07:06:26.240Z,18.25
2018-09-21T07:08:54.795Z,18.37
2018-09-21T07:11:23.317Z,18.52
2018-09-21T07:13:52.325Z,18.65
2018-09-21T07:16:20.827Z,18.97
2018-09-21T07:18:49.433Z,19.10
2018-09-21T07:21:17.986Z,19.44
2018-09-21T07:23:46.528Z,19.59
2018-09-21T07:26:15.053Z,19.59
2018-09-21T07:28:43.669Z,19.74
2018-09-21T07:31:12.241Z,19.92
2018-09-21T07:33:40.766Z,20.12
2018-09-21T07:36:09.344Z,20.13
2018-09-21T07:38:37.898Z,20.16
2018-09-21T07:41:06.442Z,20.20
2018-09-21T07:43:35.000Z,20.27
2018-09-21T07:46:03.513Z,20.32
2018-09-21T07:48:32.066Z,20.35
2018-09-21T07:51:00.584Z,20.44
2018-09-21T07:53:29.163Z,20.45
2018-09-21T07:55:57.707Z,20.48
2018-09-21T07:58:26.299Z,20.49
2018-09-21T08:00:55.072Z,20.42
2018-09-21T08:03:23.612Z,20.44
2018-09-21T08:05:52.188Z,20.52
2018-09-21T08:08:20.730Z,20.53
2018-09-21T08:10:49.306Z,20.56
2018-09-21T08:13:17.883Z,20.59
2018-09-21T08:15:46.417Z,20.59
2018-09-21T08:18:14.961Z,20.58
2018-09-21T08:20:43.505Z,20.57
2018-09-21T08:23:12.115Z,20.60
2018-09-21T08:25:40.893Z,20.66
2018-09-21T08:28:09.508Z,20.75
2018-09-21T08:30:38.047Z,20.78
2018-09-21T08:33:06.628Z,20.82
2018-09-21T08:35:35.178Z,20.80
2018-09-21T08:38:03.723Z,20.78
2018-09-21T08:40:32.310Z,20.70
2018-09-21T08:43:00.838Z,20.79
2018-09-21T08:45:29.439Z,20.81
2018-09-21T08:47:57.994Z,20.87
2018-09-21T08:50:26.553Z,20.95
2018-09-21T08:52:55.095Z,20.98
2018-09-21T08:55:23.659Z,20.91
2018-09-21T08:57:52.197Z,21.03
2018-09-21T09:00:20.767Z,20.97
2018-09-21T09:02:49.332Z,20.94
2018-09-21T09:05:17.955Z,20.92
2018-09-21T09:07:46.497Z,20.95
2018-09-21T09:10:15.101Z,20.91
2018-09-21T09:12:43.645Z,20.93
2018-09-21T09:15:12.320Z,20.98
2018-09-21T09:17:40.864Z,21.21
2018-09-21T09:20:09.764Z,21.25
2018-09-21T09:22:38.358Z,21.34
2018-09-21T09:25:07.577Z,21.44
2018-09-21T09:27:36.521Z,21.55
2018-09-21T09:30:05.698Z,21.43
2018-09-21T09:32:34.232Z,21.37
2018-09-21T09:35:02.807Z,21.41
2018-09-21T09:37:31.331Z,21.46
2018-09-21T09:39:59.906Z,21.32
2018-09-21T09:42:28.430Z,21.37
2018-09-21T09:44:56.994Z,21.32
2018-09-21T09:47:25.532Z,21.29
2018-09-21T09:49:54.116Z,21.00
2018-09-21T09:52:22.629Z,21.03
2018-09-21T09:54:51.222Z,20.75
2018-09-21T09:57:19.759Z,20.53
2018-09-21T09:59:48.309Z,20.49
2018-09-21T10:02:16.820Z,20.29
2018-09-21T10:04:45.360Z,20.25
2018-09-21T10:07:13.890Z,20.26
2018-09-21T10:09:42.420Z,20.18
2018-09-21T10:12:10.973Z,20.21
2018-09-21T10:14:39.531Z,20.15
2018-09-21T10:17:08.328Z,20.03
2018-09-21T10:19:36.829Z,19.93
2018-09-21T10:22:05.373Z,19.75
2018-09-21T10:24:33.888Z,19.64
2018-09-21T10:27:02.501Z,19.54
2018-09-21T10:29:30.983Z,19.51
2018-09-21T10:31:59.533Z,19.45
2018-09-21T10:34:28.194Z,19.37
2018-09-21T10:36:56.807Z,19.18
2018-09-21T10:39:25.324Z,19.15
2018-09-21T10:41:53.880Z,19.12
2018-09-21T10:44:22.396Z,19.05
2018-09-21T10:46:50.951Z,19.11
2018-09-21T10:49:19.485Z,19.05
2018-09-21T10:51:53.159Z,19.02
2018-09-21T10:54:22.111Z,18.98
2018-09-21T10:56:50.645Z,18.89
2018-09-21T10:59:19.153Z,18.81
2018-09-21T11:01:47.702Z,18.80
2018-09-21T11:04:16.238Z,18.71
2018-09-21T11:06:47.330Z,18.68
2018-09-21T11:09:21.059Z,18.57
2018-09-21T11:11:55.355Z,18.41
2018-09-21T11:14:35.080Z,18.28
2018-09-21T11:17:15.171Z,18.41
2018-09-21T11:19:54.227Z,18.50
2018-09-21T11:22:32.852Z,18.40
2018-09-21T11:25:09.000Z,18.33
2018-09-21T11:27:38.027Z,18.20
2018-09-21T11:30:06.721Z,18.05
2018-09-21T11:32:35.253Z,18.02
2018-09-21T11:35:03.805Z,17.95
2018-09-21T11:37:32.422Z,17.86
2018-09-21T11:40:00.942Z,17.95
2018-09-21T11:42:29.487Z,17.84
2018-09-21T11:44:58.015Z,17.84
2018-09-21T11:47:26.690Z,17.61
2018-09-21T11:49:55.098Z,15.96
2018-09-21T11:52:23.642Z,15.30
2018-09-21T11:54:52.153Z,14.66
2018-09-21T11:57:20.710Z,14.25
2018-09-21T11:59:49.257Z,13.97
2018-09-21T12:02:17.814Z,13.76
2018-09-21T12:04:46.402Z,13.67
2018-09-21T12:07:14.989Z,13.57
2018-09-21T12:09:43.504Z,13.74
2018-09-21T12:12:16.824Z,13.53
2018-09-21T12:14:45.613Z,13.62
2018-09-21T12:17:14.181Z,13.50
2018-09-21T12:19:42.711Z,13.43
2018-09-21T12:22:11.299Z,13.40
2018-09-21T12:24:39.769Z,13.45
2018-09-21T12:27:12.850Z,13.48
2018-09-21T12:29:41.546Z,13.43
2018-09-21T12:32:10.094Z,13.34
2018-09-21T12:34:38.606Z,13.45
2018-09-21T12:37:07.193Z,13.45
2018-09-21T12:39:35.695Z,13.66
2018-09-21T12:42:04.261Z,13.62
2018-09-21T12:44:32.885Z,13.61
2018-09-21T12:47:01.681Z,13.73
2018-09-21T12:49:31.320Z,14.00
2018-09-21T12:51:59.849Z,13.80
2018-09-21T12:54:29.121Z,13.95
2018-09-21T12:56:57.760Z,13.83
2018-09-21T12:59:26.309Z,13.86
2018-09-21T13:01:55.573Z,13.92
2018-09-21T13:04:24.692Z,13.55
2018-09-21T13:06:53.968Z,13.43
2018-09-21T13:09:22.550Z,13.30
2018-09-21T13:11:51.192Z,13.42
2018-09-21T13:14:20.059Z,13.67
2018-09-21T13:16:50.381Z,13.68
2018-09-21T13:19:19.601Z,13.62
2018-09-21T13:21:57.881Z,13.51
2018-09-21T13:24:26.717Z,13.76
2018-09-21T13:26:56.419Z,13.90
2018-09-21T13:29:26.652Z,14.03
2018-09-21T13:31:56.334Z,13.80
2018-09-21T13:34:26.021Z,13.87
2018-09-21T13:36:54.640Z,13.89
2018-09-21T13:39:33.765Z,14.07
2018-09-21T13:42:02.352Z,14.05
2018-09-21T13:44:30.901Z,14.02
2018-09-21T13:46:59.454Z,14.02
2018-09-21T13:49:31.734Z,14.18
2018-09-21T13:52:04.353Z,14.16
2018-09-21T13:54:37.956Z,14.14
2018-09-21T13:57:11.380Z,14.25
2018-09-21T13:59:45.690Z,14.58
2018-09-21T14:02:18.507Z,14.54
2018-09-21T14:04:49.218Z,14.45
2018-09-21T14:07:23.078Z,14.48
2018-09-21T14:09:56.195Z,14.74
2018-09-21T14:12:29.045Z,14.77
2018-09-21T14:15:02.345Z,14.77
2018-09-21T14:17:35.095Z,14.85
2018-09-21T14:20:05.668Z,14.91
2018-09-21T14:22:34.733Z,15.05
2018-09-21T14:25:03.767Z,14.89
2018-09-21T14:27:32.349Z,15.46
2018-09-21T14:30:00.935Z,15.57
2018-09-21T14:32:29.956Z,15.79
2018-09-21T14:34:59.097Z,15.50
2018-09-21T14:37:28.282Z,15.28
2018-09-21T14:40:06.044Z,15.68
2018-09-21T14:42:35.944Z,15.26
2018-09-21T14:45:07.787Z,15.53
2018-09-21T14:47:36.563Z,15.50
2018-09-21T14:50:05.216Z,15.56
2018-09-21T14:52:34.246Z,15.76
2018-09-21T14:55:02.989Z,15.74
2018-09-21T14:57:31.525Z,15.65
2018-09-21T15:00:00.197Z,15.40
2018-09-21T15:02:28.701Z,15.45
2018-09-21T15:04:57.280Z,15.31
2018-09-21T15:07:25.828Z,15.35
2018-09-21T15:09:54.398Z,15.64
2018-09-21T15:12:23.005Z,15.51
2018-09-21T15:14:51.568Z,15.51
2018-09-21T15:17:20.104Z,15.48
2018-09-21T15:19:48.653Z,15.58
2018-09-21T15:22:17.243Z,15.80
2018-09-21T15:24:45.769Z,15.72
2018-09-21T15:27:14.577Z,15.73
2018-09-21T15:29:43.128Z,16.26
2018-09-21T15:32:11.739Z,16.54
2018-09-21T15:34:43.255Z,17.02
2018-09-21T15:37:16.914Z,16.27
2018-09-21T15:39:45.581Z,16.36
2018-09-21T15:42:16.672Z,15.98
2018-09-21T15:44:45.224Z,16.04
2018-09-21T15:47:21.361Z,15.95
2018-09-21T15:49:49.980Z,15.94
2018-09-21T15:52:18.537Z,15.87
2018-09-21T15:54:51.892Z,15.98
2018-09-21T15:57:25.503Z,15.96
2018-09-21T15:59:54.338Z,16.12
2018-09-21T16:02:28.383Z,16.32
2018-09-21T16:04:57.085Z,16.56
2018-09-21T16:07:30.791Z,16.45
2018-09-21T16:09:59.527Z,16.50
2018-09-21T16:12:33.243Z,16.14
2018-09-21T16:15:09.079Z,16.04
2018-09-21T16:17:37.823Z,16.03
2018-09-21T16:20:12.906Z,15.86
2018-09-21T16:22:48.191Z,15.74
2018-09-21T16:25:20.524Z,15.75
2018-09-21T16:27:58.075Z,15.62
2018-09-21T16:30:26.823Z,15.53
2018-09-21T16:35:40.725Z,15.34
2018-09-21T16:38:19.687Z,15.30
2018-09-21T16:40:55.902Z,15.20
2018-09-21T16:43:31.779Z,15.23
2018-09-21T16:46:10.803Z,15.15
2018-09-21T16:48:47.554Z,15.08
2018-09-21T16:51:19.298Z,15.12
2018-09-21T16:53:48.188Z,14.94
2018-09-21T16:56:16.862Z,14.96
2018-09-21T16:58:49.556Z,14.94
2018-09-21T17:01:20.558Z,14.85
2018-09-21T17:03:51.339Z,14.76
2018-09-21T17:06:20.448Z,14.70
2018-09-21T17:08:49.229Z,14.69
2018-09-21T17:11:17.841Z,14.68
2018-09-21T17:13:50.835Z,14.69
2018-09-21T17:16:23.942Z,14.62
2018-09-21T17:18:53.772Z,14.52
2018-09-21T17:21:23.820Z,14.49
2018-09-21T17:23:54.653Z,14.53
2018-09-21T17:26:25.641Z,14.45
2018-09-21T17:28:56.152Z,14.27
2018-09-21T17:31:31.309Z,14.23
2018-09-21T17:34:00.559Z,14.21
2018-09-21T17:36:33.332Z,14.09
2018-09-21T17:39:01.984Z,14.09
2018-09-21T17:41:35.939Z,14.10
2018-09-21T17:44:04.654Z,13.95
2018-09-21T17:46:33.688Z,13.83
2018-09-21T17:49:02.491Z,13.87
2018-09-21T17:51:38.153Z,13.82
2018-09-21T17:54:09.439Z,13.75
2018-09-21T17:56:39.153Z,13.64
2018-09-21T17:59:09.311Z,13.56
2018-09-21T18:01:42.682Z,13.58
2018-09-21T18:04:21.344Z,13.54
2018-09-21T18:06:57.886Z,13.61
2018-09-21T18:09:34.596Z,13.56
2018-09-21T18:12:08.884Z,13.54
2018-09-21T18:14:46.721Z,13.60
2018-09-21T18:17:24.218Z,13.55
2018-09-21T18:20:04.956Z,13.43
2018-09-21T18:22:40.684Z,13.55
2018-09-21T18:25:16.141Z,13.44
2018-09-21T18:27:52.323Z,13.30
2018-09-21T18:30:28.383Z,13.28
2018-09-21T18:32:58.732Z,13.31
2018-09-21T18:35:28.975Z,13.28
2018-09-21T18:38:16.137Z,13.24
2018-09-21T18:40:49.137Z,13.16
2018-09-21T18:43:19.833Z,13.18
2018-09-21T18:45:49.822Z,13.20
2018-09-21T18:48:20.383Z,13.08
2018-09-21T18:50:57.337Z,13.10
2018-09-21T18:53:27.033Z,12.97
2018-09-21T18:56:02.379Z,12.88
2018-09-21T18:58:31.129Z,12.83
2018-09-21T19:01:05.918Z,12.94
2018-09-21T19:03:34.706Z,12.86
2018-09-21T19:06:03.245Z,12.84
2018-09-21T19:08:31.859Z,12.90
2018-09-21T19:11:00.400Z,12.83
2018-09-21T19:13:28.967Z,12.92
2018-09-21T19:15:57.468Z,12.72
2018-09-21T19:18:26.062Z,12.59
2018-09-21T19:20:54.575Z,12.20
2018-09-21T19:23:23.073Z,12.52
2018-09-21T19:25:51.602Z,11.88
2018-09-21T19:28:20.089Z,11.88
2018-09-21T19:30:48.617Z,11.88
2018-09-21T19:33:17.113Z,11.71
2018-09-21T19:35:45.662Z,11.89
2018-09-21T19:38:14.432Z,11.96
2018-09-21T19:40:43.036Z,12.05
2018-09-21T19:43:11.562Z,11.93
2018-09-21T19:45:40.090Z,11.74
2018-09-21T19:48:08.661Z,11.82
2018-09-21T19:50:37.190Z,11.59
2018-09-21T19:53:05.747Z,11.83
2018-09-21T19:55:34.269Z,11.93
2018-09-21T19:58:03.281Z,11.46
2018-09-21T20:00:31.822Z,11.24
2018-09-21T20:03:03.540Z,11.31
2018-09-21T20:05:32.109Z,11.44
2018-09-21T20:08:00.633Z,11.60
2018-09-21T20:10:30.127Z,11.65
2018-09-21T20:13:03.293Z,11.64
2018-09-21T20:15:31.812Z,11.61
2018-09-21T20:18:00.550Z,11.83
2018-09-21T20:20:29.227Z,11.79
2018-09-21T20:22:58.258Z,11.79
2018-09-21T20:25:27.881Z,11.78
2018-09-21T20:27:56.835Z,11.89
2018-09-21T20:30:31.085Z,12.03
2018-09-21T20:33:06.058Z,12.15
2018-09-21T20:35:35.472Z,12.20
2018-09-21T20:38:10.263Z,12.16
2018-09-21T20:40:39.502Z,12.54
2018-09-21T20:43:10.419Z,12.54
2018-09-21T20:45:40.331Z,12.49
2018-09-21T20:48:15.302Z,12.59
2018-09-21T20:50:45.394Z,12.65
2018-09-21T20:53:15.339Z,12.62
2018-09-21T20:55:45.817Z,12.83
2018-09-21T20:58:16.305Z,12.77
2018-09-21T21:00:45.228Z,12.67
2018-09-21T21:03:14.214Z,12.64
2018-09-21T21:05:44.163Z,12.66
2018-09-21T21:08:14.938Z,12.74
2018-09-21T21:10:45.976Z,12.66
2018-09-21T21:13:15.549Z,12.64
2018-09-21T21:15:44.754Z,12.60
2018-09-21T21:18:14.562Z,12.62
2018-09-21T21:20:46.225Z,12.59
2018-09-21T21:23:18.391Z,12.66
2018-09-21T21:25:51.161Z,12.65
2018-09-21T21:28:23.144Z,12.59
2018-09-21T21:30:54.626Z,12.55
2018-09-21T21:33:23.871Z,12.56
2018-09-21T21:36:00.167Z,12.50
2018-09-21T21:38:35.728Z,12.38
2018-09-21T21:41:12.913Z,12.34
2018-09-21T21:43:48.660Z,12.23
2018-09-21T21:46:25.461Z,12.14
2018-09-21T21:49:02.244Z,12.05
2018-09-21T21:51:36.392Z,11.92
2018-09-21T21:54:11.747Z,11.92
2018-09-21T21:56:46.432Z,11.83
2018-09-21T21:59:20.596Z,11.89
2018-09-21T22:01:55.921Z,11.92
2018-09-21T22:04:31.843Z,11.80
2018-09-21T22:07:07.802Z,11.76
2018-09-21T22:09:42.171Z,11.74
2018-09-21T22:12:21.109Z,11.62
2018-09-21T22:14:55.655Z,11.54
2018-09-21T22:17:31.979Z,11.45
2018-09-21T22:20:06.713Z,11.40
2018-09-21T22:22:41.468Z,11.07
2018-09-21T22:25:16.298Z,11.25
2018-09-21T22:27:51.979Z,11.22
2018-09-21T22:30:26.294Z,11.19
2018-09-21T22:33:02.256Z,11.19
2018-09-21T22:35:30.938Z,11.06
2018-09-21T22:37:59.461Z,11.11
2018-09-21T22:40:27.955Z,11.00
2018-09-21T22:42:56.481Z,10.87
2018-09-21T22:45:24.965Z,11.03
2018-09-21T22:47:53.516Z,10.99
2018-09-21T22:50:22.009Z,10.96
2018-09-21T22:52:50.538Z,10.95
2018-09-21T22:55:19.029Z,10.99
2018-09-21T22:57:47.549Z,10.93
2018-09-21T23:00:16.063Z,10.93
2018-09-21T23:02:44.581Z,10.88
2018-09-21T23:05:13.068Z,10.85
2018-09-21T23:07:41.593Z,10.78
2018-09-21T23:10:10.171Z,10.72
2018-09-21T23:12:38.717Z,10.96
2018-09-21T23:15:07.266Z,10.94
2018-09-21T23:17:35.797Z,10.94
2018-09-21T23:20:04.346Z,10.76
2018-09-21T23:22:32.888Z,10.75
2018-09-21T23:25:01.371Z,10.69
2018-09-21T23:27:29.888Z,10.60
2018-09-21T23:29:58.373Z,10.38
2018-09-21T23:32:26.889Z,10.36
2018-09-21T23:34:55.427Z,10.36
2018-09-21T23:37:24.286Z,10.40
2018-09-21T23:39:52.778Z,10.18
2018-09-21T23:42:21.289Z,10.17
2018-09-21T23:44:49.781Z,10.33
2018-09-21T23:47:18.324Z,10.26
2018-09-21T23:49:46.812Z,10.03
2018-09-21T23:52:15.320Z,10.26
2018-09-21T23:54:44.057Z,9.89
2018-09-21T23:57:12.565Z,9.90
2018-09-21T23:59:41.084Z,10.02
